createdAt,value
2023-06-30T00:01:26.847Z,5.63
2023-06-30T00:03:52.925Z,6.55
2023-06-30T00:06:19.580Z,8.15
2023-06-30T00:08:45.706Z,7.82
2023-06-30T00:11:11.844Z,8.02
2023-06-30T00:13:37.689Z,9.02
2023-06-30T00:16:03.620Z,8.93
2023-06-30T00:18:29.937Z,8.98
2023-06-30T00:20:55.902Z,9.27
2023-06-30T00:23:21.730Z,8.95
2023-06-30T00:25:47.575Z,9.68
2023-06-30T00:28:13.524Z,9.88
2023-06-30T00:30:39.431Z,10.02
2023-06-30T00:33:05.319Z,10.98
2023-06-30T00:35:31.157Z,10.35
2023-06-30T00:37:57.000Z,11.35
2023-06-30T00:40:22.898Z,11.63
2023-06-30T00:42:48.728Z,12.15
2023-06-30T00:45:14.555Z,10.55
2023-06-30T00:47:40.355Z,12.20
2023-06-30T00:50:06.450Z,11.82
2023-06-30T00:52:33.041Z,11.27
2023-06-30T00:54:58.860Z,13.32
2023-06-30T00:57:24.657Z,12.45
2023-06-30T00:59:50.472Z,11.07
2023-06-30T01:02:16.297Z,13.48
2023-06-30T01:04:53.161Z,11.13
2023-06-30T01:07:19.021Z,13.40
2023-06-30T01:09:49.643Z,13.10
2023-06-30T01:12:16.360Z,12.02
2023-06-30T01:14:42.864Z,12.35
2023-06-30T01:17:09.096Z,12.73
2023-06-30T01:19:36.042Z,13.32
2023-06-30T01:22:08.653Z,12.68
2023-06-30T01:24:36.617Z,13.07
2023-06-30T01:27:02.920Z,12.43
2023-06-30T01:29:29.109Z,13.45
2023-06-30T01:31:54.961Z,13.23
2023-06-30T01:34:21.964Z,12.40
2023-06-30T01:36:48.075Z,13.60
2023-06-30T01:39:16.556Z,12.70
2023-06-30T01:41:43.272Z,13.05
2023-06-30T01:44:09.080Z,13.25
2023-06-30T01:46:35.055Z,13.55
2023-06-30T01:49:00.982Z,14.13
2023-06-30T01:51:26.846Z,13.95
2023-06-30T01:53:52.617Z,12.52
2023-06-30T01:56:18.500Z,12.52
2023-06-30T01:58:44.345Z,12.98
2023-06-30T02:01:10.168Z,12.80
2023-06-30T02:03:36.125Z,13.05
2023-06-30T02:06:03.531Z,13.73
2023-06-30T02:08:29.377Z,13.23
2023-06-30T02:10:55.371Z,13.05
2023-06-30T02:13:21.261Z,12.68
2023-06-30T02:15:47.224Z,13.68
2023-06-30T02:18:14.045Z,13.32
2023-06-30T02:20:39.882Z,12.48
2023-06-30T02:23:05.678Z,13.27
2023-06-30T02:25:31.484Z,13.55
2023-06-30T02:27:58.278Z,12.32
2023-06-30T02:30:24.264Z,12.13
2023-06-30T02:32:50.200Z,12.15
2023-06-30T02:35:16.111Z,13.60
2023-06-30T02:37:42.046Z,13.75
2023-06-30T02:40:09.512Z,13.63
2023-06-30T02:42:35.499Z,13.35
2023-06-30T02:45:01.478Z,13.80
2023-06-30T02:47:27.407Z,14.55
2023-06-30T02:49:53.233Z,13.55
2023-06-30T02:52:19.067Z,14.38
2023-06-30T02:54:44.934Z,14.73
2023-06-30T02:57:10.749Z,14.05
2023-06-30T02:59:36.547Z,14.23
2023-06-30T03:02:03.327Z,13.55
2023-06-30T03:04:29.957Z,13.38
2023-06-30T03:06:55.780Z,13.30
2023-06-30T03:09:21.610Z,13.75
2023-06-30T03:11:47.726Z,13.27
2023-06-30T03:14:13.521Z,13.68
2023-06-30T03:16:39.431Z,13.65
2023-06-30T03:19:05.289Z,15.48
2023-06-30T03:21:31.113Z,14.15
2023-06-30T03:23:57.168Z,15.38
2023-06-30T03:26:23.840Z,15.23
2023-06-30T03:28:49.692Z,14.23
2023-06-30T03:31:15.663Z,14.75
2023-06-30T03:33:41.569Z,15.25
2023-06-30T03:36:07.920Z,14.55
2023-06-30T03:38:33.759Z,15.38
2023-06-30T03:40:59.701Z,14.23
2023-06-30T03:43:25.580Z,13.55
2023-06-30T03:45:51.514Z,13.48
2023-06-30T03:48:17.759Z,12.30
2023-06-30T03:50:43.983Z,12.23
2023-06-30T03:53:10.173Z,14.32
2023-06-30T03:55:36.004Z,12.88
2023-06-30T03:58:02.286Z,13.93
2023-06-30T04:00:29.408Z,13.25
2023-06-30T04:02:55.301Z,13.32
2023-06-30T04:05:21.142Z,13.25
2023-06-30T04:07:47.057Z,14.23
2023-06-30T04:10:13.059Z,12.95
2023-06-30T04:12:39.122Z,13.70
2023-06-30T04:15:08.137Z,13.43
2023-06-30T04:17:34.184Z,12.80
2023-06-30T04:20:00.025Z,13.70
2023-06-30T04:22:25.806Z,13.70
2023-06-30T04:24:51.857Z,13.75
2023-06-30T04:27:18.031Z,12.63
2023-06-30T04:29:43.843Z,13.77
2023-06-30T04:32:09.711Z,13.88
2023-06-30T04:34:35.582Z,13.32
2023-06-30T04:37:01.403Z,12.60
2023-06-30T04:39:27.347Z,12.57
2023-06-30T04:41:53.520Z,12.50
2023-06-30T04:44:19.537Z,12.82
2023-06-30T04:46:45.700Z,11.70
2023-06-30T04:49:11.532Z,13.18
2023-06-30T04:51:37.365Z,12.65
2023-06-30T04:54:03.230Z,11.90
2023-06-30T04:56:29.076Z,12.10
2023-06-30T04:58:54.965Z,12.60
2023-06-30T05:01:20.841Z,11.95
2023-06-30T05:03:46.853Z,11.45
2023-06-30T05:06:12.772Z,11.95
2023-06-30T05:08:38.698Z,11.75
2023-06-30T05:11:09.020Z,10.55
2023-06-30T05:13:35.154Z,11.57
2023-06-30T05:16:01.442Z,12.32
2023-06-30T05:18:27.715Z,11.32
2023-06-30T05:20:53.737Z,10.35
2023-06-30T05:23:20.180Z,11.02
2023-06-30T05:25:46.260Z,10.60
2023-06-30T05:28:12.489Z,9.10
2023-06-30T05:30:39.937Z,10.43
2023-06-30T05:33:09.265Z,10.00
2023-06-30T05:35:35.387Z,10.38
2023-06-30T05:38:01.525Z,11.25
2023-06-30T05:40:27.898Z,9.27
2023-06-30T05:42:57.388Z,10.60
2023-06-30T05:45:23.860Z,10.88
2023-06-30T05:47:50.300Z,10.55
2023-06-30T05:50:17.804Z,10.43
2023-06-30T05:52:44.142Z,10.02
2023-06-30T05:55:10.268Z,10.65
2023-06-30T05:57:36.553Z,10.70
2023-06-30T06:00:05.677Z,11.90
2023-06-30T06:02:31.813Z,9.98
2023-06-30T06:04:58.299Z,10.32
2023-06-30T06:07:24.595Z,10.00
2023-06-30T06:09:50.959Z,10.50
2023-06-30T06:12:17.212Z,10.70
2023-06-30T06:14:43.319Z,10.32
2023-06-30T06:17:09.470Z,10.48
2023-06-30T06:19:35.696Z,10.95
2023-06-30T06:22:01.859Z,10.43
2023-06-30T06:24:27.916Z,10.65
2023-06-30T06:26:53.892Z,9.27
2023-06-30T06:29:22.381Z,10.95
2023-06-30T06:31:49.852Z,11.57
2023-06-30T06:34:16.260Z,10.90
2023-06-30T06:36:44.697Z,10.50
2023-06-30T06:39:12.373Z,10.65
2023-06-30T06:41:39.153Z,11.75
2023-06-30T06:44:05.584Z,11.10
2023-06-30T06:46:31.951Z,10.70
2023-06-30T06:48:57.893Z,11.18
2023-06-30T06:51:24.316Z,11.20
2023-06-30T06:53:52.613Z,11.13
2023-06-30T06:56:18.836Z,11.07
2023-06-30T06:58:45.815Z,12.02
2023-06-30T07:01:12.493Z,12.00
2023-06-30T07:03:39.061Z,11.63
2023-06-30T07:06:07.067Z,11.50
2023-06-30T07:08:36.235Z,12.93
2023-06-30T07:11:11.943Z,12.50
2023-06-30T07:13:39.059Z,12.23
2023-06-30T07:16:05.258Z,13.30
2023-06-30T07:18:38.120Z,12.95
2023-06-30T07:21:04.608Z,11.32
2023-06-30T07:23:30.932Z,12.98
2023-06-30T07:25:57.028Z,11.23
2023-06-30T07:28:23.007Z,12.07
2023-06-30T07:30:49.414Z,12.85
2023-06-30T07:33:15.431Z,12.95
2023-06-30T07:35:41.690Z,11.57
2023-06-30T07:38:07.760Z,13.15
2023-06-30T07:43:09.217Z,12.70
2023-06-30T07:45:35.431Z,13.07
2023-06-30T07:48:02.216Z,13.02
2023-06-30T07:50:28.891Z,12.20
2023-06-30T07:52:55.016Z,12.75
2023-06-30T07:55:22.153Z,14.55
2023-06-30T07:57:48.738Z,13.73
2023-06-30T08:00:21.473Z,13.15
2023-06-30T08:02:47.876Z,13.98
2023-06-30T08:05:16.782Z,13.02
2023-06-30T08:07:49.351Z,13.80
2023-06-30T08:10:17.653Z,12.13
2023-06-30T08:12:43.927Z,12.45
2023-06-30T08:15:10.061Z,12.00
2023-06-30T08:17:52.086Z,13.57
2023-06-30T08:20:22.395Z,14.60
2023-06-30T08:22:48.451Z,15.82
2023-06-30T08:25:14.350Z,15.18
2023-06-30T08:27:40.233Z,15.88
2023-06-30T08:30:07.147Z,15.48
2023-06-30T08:32:33.297Z,17.20
2023-06-30T08:34:59.628Z,17.45
2023-06-30T08:37:26.541Z,17.27
2023-06-30T08:39:52.604Z,16.60
2023-06-30T08:42:20.524Z,17.90
2023-06-30T08:44:50.481Z,17.52
2023-06-30T08:47:18.007Z,17.63
2023-06-30T08:49:43.955Z,16.40
2023-06-30T08:52:10.202Z,16.73
2023-06-30T08:54:36.713Z,18.02
2023-06-30T08:57:03.987Z,17.92
2023-06-30T08:59:29.962Z,16.20
2023-06-30T09:01:57.405Z,17.27
2023-06-30T09:04:23.596Z,19.20
2023-06-30T09:06:49.829Z,17.05
2023-06-30T09:09:31.621Z,16.63
2023-06-30T09:12:01.223Z,17.05
2023-06-30T09:14:34.361Z,16.80
2023-06-30T09:17:00.918Z,17.60
2023-06-30T09:19:27.226Z,18.08
2023-06-30T09:21:53.981Z,17.23
2023-06-30T09:24:20.217Z,17.08
2023-06-30T09:26:46.260Z,17.50
2023-06-30T09:29:13.231Z,15.60
2023-06-30T09:31:39.681Z,15.82
2023-06-30T09:34:09.936Z,15.80
2023-06-30T09:36:38.203Z,16.58
2023-06-30T09:39:11.720Z,16.55
2023-06-30T09:41:45.079Z,16.88
2023-06-30T09:44:11.490Z,15.18
2023-06-30T09:46:46.463Z,16.17
2023-06-30T09:49:32.355Z,15.23
2023-06-30T09:51:58.918Z,14.77
2023-06-30T09:54:39.446Z,15.32
2023-06-30T09:57:09.420Z,15.68
2023-06-30T09:59:35.446Z,13.90
2023-06-30T10:02:05.335Z,15.43
2023-06-30T10:04:31.639Z,14.45
2023-06-30T10:06:58.806Z,14.30
2023-06-30T10:09:25.464Z,14.05
2023-06-30T10:12:03.960Z,13.95
2023-06-30T10:14:36.233Z,12.82
2023-06-30T10:17:03.174Z,12.15
2023-06-30T10:21:55.921Z,13.00
2023-06-30T10:24:26.269Z,12.43
2023-06-30T10:26:54.077Z,12.10
2023-06-30T10:29:20.769Z,11.88
2023-06-30T10:31:47.466Z,12.38
2023-06-30T10:34:13.641Z,13.38
2023-06-30T10:36:39.896Z,13.48
2023-06-30T10:39:06.624Z,13.98
2023-06-30T10:41:50.933Z,15.35
2023-06-30T10:44:20.292Z,14.63
2023-06-30T10:46:53.127Z,13.50
2023-06-30T10:49:26.963Z,15.80
2023-06-30T10:51:56.646Z,16.23
2023-06-30T10:54:27.439Z,16.00
2023-06-30T10:57:05.273Z,15.35
2023-06-30T10:59:39.047Z,15.05
2023-06-30T11:02:23.266Z,15.80
2023-06-30T11:04:51.482Z,15.82
2023-06-30T11:07:28.038Z,15.10
2023-06-30T11:10:15.178Z,15.30
2023-06-30T11:27:33.050Z,17.23
2023-06-30T11:30:06.458Z,17.45
2023-06-30T11:35:25.377Z,18.98
2023-06-30T11:43:58.923Z,21.75
2023-06-30T11:46:28.224Z,15.18
2023-06-30T11:54:20.075Z,6.97
2023-06-30T11:56:47.469Z,6.50
2023-06-30T11:59:13.580Z,6.47
2023-06-30T12:04:23.765Z,4.93
2023-06-30T12:13:05.876Z,6.68
2023-06-30T12:15:42.458Z,5.47
2023-06-30T12:23:33.545Z,6.93
2023-06-30T12:34:14.670Z,6.70
2023-06-30T12:36:42.520Z,7.30
2023-06-30T12:42:11.895Z,7.05
2023-06-30T12:44:38.078Z,7.15
2023-06-30T12:47:11.556Z,6.90
2023-06-30T12:49:38.133Z,7.47
2023-06-30T12:54:46.803Z,7.03
2023-06-30T12:57:13.493Z,7.65
2023-06-30T12:59:39.721Z,6.10
2023-06-30T13:02:07.859Z,7.47
2023-06-30T13:04:34.428Z,5.97
2023-06-30T13:07:01.248Z,5.70
2023-06-30T13:12:26.766Z,6.63
2023-06-30T13:14:53.912Z,6.57
2023-06-30T13:17:21.264Z,6.45
2023-06-30T13:19:48.211Z,6.40
2023-06-30T13:22:24.354Z,5.13
2023-06-30T13:24:50.919Z,5.45
2023-06-30T13:27:17.438Z,5.80
2023-06-30T13:29:44.027Z,5.47
2023-06-30T13:32:10.789Z,5.35
2023-06-30T13:34:37.509Z,5.20
2023-06-30T13:37:04.045Z,5.95
2023-06-30T13:39:30.077Z,5.25
2023-06-30T13:41:56.243Z,4.13
2023-06-30T13:44:22.670Z,3.55
2023-06-30T13:46:49.004Z,3.75
2023-06-30T13:49:15.242Z,3.95
2023-06-30T13:51:43.140Z,3.50
2023-06-30T13:54:09.336Z,3.40
2023-06-30T13:56:35.930Z,2.33
2023-06-30T13:59:01.883Z,4.20
2023-06-30T14:01:29.508Z,3.10
2023-06-30T14:03:56.991Z,2.50
2023-06-30T14:06:22.934Z,3.47
2023-06-30T14:08:53.662Z,2.80
2023-06-30T14:11:21.122Z,2.80
2023-06-30T14:13:48.488Z,2.72
2023-06-30T14:16:15.034Z,2.25
2023-06-30T14:18:41.135Z,1.88
2023-06-30T14:21:07.214Z,2.35
2023-06-30T14:23:34.214Z,2.17
2023-06-30T14:26:01.372Z,3.00
2023-06-30T14:28:27.439Z,1.98
2023-06-30T14:30:53.585Z,2.35
2023-06-30T14:33:19.696Z,2.58
2023-06-30T14:35:46.061Z,1.95
2023-06-30T14:38:12.580Z,1.90
2023-06-30T14:40:45.220Z,2.25
2023-06-30T14:43:11.211Z,2.03
2023-06-30T14:45:37.326Z,1.50
2023-06-30T14:48:03.432Z,1.77
2023-06-30T14:50:30.009Z,1.95
2023-06-30T14:52:56.432Z,1.50
2023-06-30T14:55:22.596Z,1.85
2023-06-30T14:57:50.600Z,1.50
2023-06-30T15:00:16.903Z,1.30
2023-06-30T15:02:43.397Z,1.35
2023-06-30T15:05:09.642Z,1.70
2023-06-30T15:07:36.051Z,1.75
2023-06-30T15:10:03.762Z,1.70
2023-06-30T15:12:44.658Z,1.60
2023-06-30T15:15:10.835Z,1.73
2023-06-30T15:17:36.900Z,1.30
2023-06-30T15:20:03.496Z,1.40
2023-06-30T15:22:31.397Z,1.40
2023-06-30T15:25:00.807Z,1.30
2023-06-30T15:27:26.938Z,1.33
2023-06-30T15:29:54.337Z,1.27
2023-06-30T15:32:20.546Z,1.45
2023-06-30T15:34:46.787Z,1.40
2023-06-30T15:37:13.527Z,1.67
2023-06-30T15:39:39.671Z,1.50
2023-06-30T15:42:05.878Z,1.52
2023-06-30T15:44:33.342Z,1.40
2023-06-30T15:47:00.943Z,1.40
2023-06-30T15:49:26.995Z,1.80
2023-06-30T15:51:52.998Z,1.52
2023-06-30T15:54:19.072Z,1.27
2023-06-30T15:56:45.093Z,1.80
2023-06-30T15:59:11.840Z,1.50
2023-06-30T16:01:37.902Z,2.72
2023-06-30T16:04:04.045Z,1.80
2023-06-30T16:06:30.176Z,1.70
2023-06-30T16:08:58.548Z,1.95
2023-06-30T16:12:03.689Z,1.70
2023-06-30T16:14:29.705Z,2.20
2023-06-30T16:16:55.950Z,2.08
2023-06-30T16:19:22.193Z,1.92
2023-06-30T16:21:52.196Z,2.08
2023-06-30T16:24:18.324Z,2.20
2023-06-30T16:29:27.710Z,1.83
2023-06-30T16:32:03.361Z,1.80
2023-06-30T16:37:10.872Z,2.15
2023-06-30T16:39:36.765Z,2.83
2023-06-30T16:42:30.374Z,2.47
2023-06-30T16:44:56.960Z,2.17
2023-06-30T16:47:26.707Z,1.52
2023-06-30T17:27:11.436Z,2.00
2023-06-30T17:29:37.654Z,1.70
2023-06-30T17:34:47.317Z,1.38
2023-06-30T17:37:13.496Z,4.65
2023-06-30T17:39:39.726Z,1.75
2023-06-30T17:42:05.850Z,1.80
2023-06-30T17:44:32.372Z,1.20
2023-06-30T17:46:58.768Z,1.67
2023-06-30T17:49:33.697Z,1.92
2023-06-30T17:52:00.265Z,1.05
2023-06-30T17:54:27.476Z,1.30
2023-06-30T17:57:00.652Z,1.10
2023-06-30T17:59:31.638Z,1.40
2023-06-30T18:04:23.757Z,2.22
2023-06-30T18:07:04.964Z,2.03
2023-06-30T18:09:32.045Z,2.03
2023-06-30T18:11:58.411Z,1.67
2023-06-30T18:14:24.434Z,1.90
2023-06-30T18:16:50.412Z,2.22
2023-06-30T18:19:18.124Z,1.48
2023-06-30T18:21:44.507Z,1.30
2023-06-30T18:24:10.562Z,1.90
2023-06-30T18:26:36.791Z,1.23
2023-06-30T18:29:02.881Z,1.30
2023-06-30T18:31:29.215Z,1.20
2023-06-30T18:33:55.192Z,1.50
2023-06-30T18:36:21.171Z,2.03
2023-06-30T18:38:47.126Z,1.70
2023-06-30T18:41:13.463Z,2.28
2023-06-30T18:43:39.812Z,1.63
2023-06-30T18:46:05.810Z,1.40
2023-06-30T18:48:31.874Z,1.65
2023-06-30T18:50:57.973Z,1.50
2023-06-30T18:53:23.994Z,1.70
2023-06-30T18:55:50.370Z,1.63
2023-06-30T18:58:16.204Z,1.40
2023-06-30T19:00:42.155Z,1.88
2023-06-30T19:03:14.000Z,1.40
2023-06-30T19:05:40.023Z,1.33
2023-06-30T19:08:06.050Z,1.45
2023-06-30T19:10:32.420Z,2.60
2023-06-30T19:12:58.550Z,1.77
2023-06-30T19:15:24.609Z,1.33
2023-06-30T19:17:55.218Z,1.75
2023-06-30T19:22:47.035Z,1.40
2023-06-30T19:25:13.021Z,1.60
2023-06-30T19:27:38.916Z,1.90
2023-06-30T19:30:05.356Z,1.80
2023-06-30T19:32:34.244Z,1.67
2023-06-30T19:35:03.127Z,2.08
2023-06-30T19:37:29.675Z,1.88
2023-06-30T19:39:55.550Z,1.63
2023-06-30T19:42:21.481Z,1.73
2023-06-30T19:44:47.537Z,2.22
2023-06-30T19:47:13.871Z,1.60
2023-06-30T19:49:39.951Z,1.60
2023-06-30T19:52:06.083Z,2.00
2023-06-30T19:54:32.110Z,1.67
2023-06-30T19:56:58.232Z,1.85
2023-06-30T19:59:24.209Z,2.00
2023-06-30T20:01:55.498Z,2.50
2023-06-30T20:04:23.766Z,1.90
2023-06-30T20:06:49.707Z,2.42
2023-06-30T20:09:15.613Z,2.22
2023-06-30T20:11:42.157Z,3.22
2023-06-30T20:14:08.053Z,2.42
2023-06-30T20:16:34.038Z,2.30
2023-06-30T20:18:59.960Z,2.00
2023-06-30T20:21:25.941Z,1.85
2023-06-30T20:23:51.960Z,2.17
2023-06-30T20:26:21.066Z,2.30
2023-06-30T20:28:47.246Z,2.35
2023-06-30T20:31:13.322Z,2.63
2023-06-30T20:33:39.362Z,2.45
2023-06-30T20:36:05.369Z,2.78
2023-06-30T20:38:31.353Z,2.92
2023-06-30T20:40:57.240Z,2.95
2023-06-30T20:43:23.263Z,3.15
2023-06-30T20:45:49.769Z,2.83
2023-06-30T20:48:15.694Z,2.95
2023-06-30T20:50:41.818Z,3.05
2023-06-30T20:53:10.813Z,2.53
2023-06-30T20:55:37.357Z,2.80
2023-06-30T20:58:03.618Z,2.55
2023-06-30T21:00:30.414Z,2.83
2023-06-30T21:02:56.716Z,2.92
2023-06-30T21:05:22.988Z,2.53
2023-06-30T21:07:48.904Z,2.88
2023-06-30T21:10:16.173Z,2.33
2023-06-30T21:12:42.544Z,3.42
2023-06-30T21:15:09.117Z,3.28
2023-06-30T21:17:35.120Z,3.38
2023-06-30T21:20:02.503Z,3.20
2023-06-30T21:22:28.415Z,3.33
2023-06-30T21:24:54.238Z,3.20
2023-06-30T21:27:32.405Z,2.83
2023-06-30T21:29:58.321Z,3.33
2023-06-30T21:32:24.332Z,2.70
2023-06-30T21:34:50.418Z,2.95
2023-06-30T21:37:16.457Z,3.10
2023-06-30T21:39:42.352Z,2.80
2023-06-30T21:42:09.340Z,2.63
2023-06-30T21:44:35.160Z,2.97
2023-06-30T21:47:00.981Z,3.17
2023-06-30T21:49:26.846Z,3.00
2023-06-30T21:51:52.682Z,3.50
2023-06-30T21:54:27.174Z,3.50
2023-06-30T21:57:02.468Z,3.60
2023-06-30T21:59:28.291Z,4.05
2023-06-30T22:01:54.208Z,3.53
2023-06-30T22:04:20.094Z,3.58
2023-06-30T22:06:48.692Z,4.65
2023-06-30T22:09:16.261Z,3.63
2023-06-30T22:11:43.663Z,3.50
2023-06-30T22:14:09.521Z,4.20
2023-06-30T22:16:35.302Z,3.58
2023-06-30T22:19:01.116Z,4.47
2023-06-30T22:21:26.973Z,3.88
2023-06-30T22:23:52.762Z,3.95
2023-06-30T22:26:18.759Z,4.38
2023-06-30T22:28:44.604Z,3.40
2023-06-30T22:31:10.433Z,3.45
2023-06-30T22:33:36.378Z,3.97
2023-06-30T22:36:02.913Z,3.53
2023-06-30T22:38:28.972Z,3.47
2023-06-30T22:40:54.857Z,3.35
2023-06-30T22:43:20.667Z,3.53
2023-06-30T22:45:47.354Z,3.33
2023-06-30T22:48:13.340Z,3.42
2023-06-30T22:50:39.182Z,3.60
2023-06-30T22:53:06.108Z,3.70
2023-06-30T22:55:35.403Z,4.63
2023-06-30T22:58:01.348Z,4.50
2023-06-30T23:00:27.283Z,3.30
2023-06-30T23:02:53.317Z,3.88
2023-06-30T23:05:19.206Z,3.70
2023-06-30T23:07:46.794Z,3.58
2023-06-30T23:10:12.782Z,3.88
2023-06-30T23:12:38.930Z,3.67
2023-06-30T23:15:04.933Z,4.13
2023-06-30T23:17:30.878Z,4.03
2023-06-30T23:19:56.814Z,4.22
2023-06-30T23:22:26.442Z,3.95
2023-06-30T23:24:52.570Z,4.07
2023-06-30T23:27:19.191Z,4.22
2023-06-30T23:29:49.370Z,3.67
2023-06-30T23:32:16.026Z,4.53
2023-06-30T23:34:42.602Z,4.57
2023-06-30T23:37:11.771Z,4.38
2023-06-30T23:39:37.793Z,4.15
2023-06-30T23:42:03.827Z,3.75
2023-06-30T23:44:29.801Z,4.63
2023-06-30T23:46:55.697Z,4.72
2023-06-30T23:49:21.646Z,4.22
2023-06-30T23:51:47.512Z,4.55
2023-06-30T23:54:14.760Z,4.30
2023-06-30T23:56:40.962Z,3.97
2023-06-30T23:59:06.934Z,4.35
